Time;durP1;ratioP1;P1;durP2;ratioP2;P2;SDS_P1;SDS_P2;PMS_P1;PMS_P2;Temp;Humidity;BMP_temperature;BMP_pressure;BME280_temperature;BME280_humidity;BME280_pressure;Samples;Min_cycle;Max_cycle;Signal;HPM_P1;HPM_P2
2022/10/01 00:01:17;;;;;;;;;16.25;16.25;;;;;11.69;79.90;100060.59;5058114;28;10301;-64
2022/10/01 00:03:44;;;;;;;;;15.75;15.50;;;;;11.71;80.03;100050.44;5008570;28;10249;-64
2022/10/01 00:06:11;;;;;;;;;13.25;12.75;;;;;11.75;80.04;100050.78;5059741;28;10334;-64
2022/10/01 00:08:40;;;;;;;;;21.75;19.50;;;;;11.71;80.26;100042.34;5009841;28;10299;-64
2022/10/01 00:11:13;;;;;;;;;17.00;16.50;;;;;11.72;80.35;100030.50;5084593;28;11235;-66
2022/10/01 00:13:41;;;;;;;;;14.25;14.25;;;;;11.73;79.77;100029.44;4996118;28;10375;-64
2022/10/01 00:16:11;;;;;;;;;15.75;15.00;;;;;11.68;79.77;100010.44;5058629;28;10166;-64
2022/10/01 00:18:39;;;;;;;;;14.25;14.25;;;;;11.64;80.03;99985.78;5026643;28;10074;-64
2022/10/01 00:21:12;;;;;;;;;19.75;19.00;;;;;11.61;80.41;99966.53;5088872;28;10190;-67
2022/10/01 00:23:39;;;;;;;;;18.50;17.00;;;;;11.57;80.66;99949.97;5009514;28;10258;-64
2022/10/01 00:26:20;;;;;;;;;15.00;14.00;;;;;11.60;80.82;99954.09;5012953;28;10319;-64
2022/10/01 00:28:52;;;;;;;;;16.50;15.50;;;;;11.59;80.59;99968.63;5016636;28;10161;-64
2022/10/01 00:31:19;;;;;;;;;19.50;18.75;;;;;11.54;80.79;99988.16;5045980;28;10338;-64
2022/10/01 00:33:46;;;;;;;;;20.00;17.25;;;;;11.57;80.96;100003.06;5000380;28;10153;-64
2022/10/01 00:36:13;;;;;;;;;14.25;14.25;;;;;11.59;81.23;99996.41;5041442;28;10346;-64
2022/10/01 00:38:39;;;;;;;;;15.50;13.75;;;;;11.53;80.94;99988.38;5012062;28;10939;-64
2022/10/01 00:41:07;;;;;;;;;17.00;15.00;;;;;11.48;81.67;99986.34;5110082;28;10085;-64
2022/10/01 00:43:39;;;;;;;;;13.50;12.25;;;;;11.59;81.56;99993.72;5002590;28;10188;-64
2022/10/01 00:46:14;;;;;;;;;14.50;13.00;;;;;11.51;81.53;99988.59;5056567;28;10058;-63
2022/10/01 00:48:58;;;;;;;;;11.00;8.75;;;;;11.56;81.39;99969.06;5014378;28;10199;-64
2022/10/01 00:51:28;;;;;;;;;10.75;10.75;;;;;11.61;81.77;99970.03;5057407;28;9921;-64
2022/10/01 00:54:03;;;;;;;;;15.25;9.00;;;;;11.63;81.40;99972.53;5063448;28;10098;-64
2022/10/01 00:56:31;;;;;;;;;10.75;10.75;;;;;11.65;81.37;99983.91;5108981;28;10061;-64
2022/10/01 00:58:59;;;;;;;;;8.00;8.00;;;;;11.67;81.43;99973.75;5019553;28;10722;-63
2022/10/01 01:01:25;;;;;;;;;10.50;10.50;;;;;11.68;81.22;99970.00;5095449;28;10570;-65
2022/10/01 01:03:52;;;;;;;;;12.25;11.00;;;;;11.63;81.07;99970.66;4994395;28;10112;-64
2022/10/01 01:06:18;;;;;;;;;10.75;9.50;;;;;11.67;81.51;99956.72;5020632;28;9933;-62
2022/10/01 01:08:44;;;;;;;;;11.00;8.00;;;;;11.58;81.44;99966.97;5005272;28;10010;-65
2022/10/01 01:11:22;;;;;;;;;8.00;6.75;;;;;11.54;81.34;99955.81;5018789;28;9945;-66
2022/10/01 01:14:00;;;;;;;;;9.75;9.75;;;;;11.55;81.67;99951.25;4998828;28;9837;-64
2022/10/01 01:16:53;;;;;;;;;8.00;7.00;;;;;11.55;81.12;99945.88;5068203;28;9887;-65
2022/10/01 01:19:36;;;;;;;;;7.75;5.50;;;;;11.57;81.62;99943.75;5013161;28;10648;-64
2022/10/01 01:22:07;;;;;;;;;8.75;7.50;;;;;11.55;81.84;99948.56;5046983;28;10018;-64
2022/10/01 01:24:39;;;;;;;;;0.75;0.00;;;;;11.55;81.85;99935.09;5017519;28;9909;-64
2022/10/01 01:27:15;;;;;;;;;7.00;6.00;;;;;11.53;81.73;99935.28;5014794;28;9864;-64
2022/10/01 01:30:09;;;;;;;;;7.25;5.50;;;;;11.59;82.12;99947.06;4993828;28;9837;-64
2022/10/01 01:32:58;;;;;;;;;8.25;6.50;;;;;11.62;82.25;99942.03;5002542;28;9861;-64
2022/10/01 01:35:43;;;;;;;;;6.75;6.00;;;;;11.67;81.87;99930.59;5043233;28;9861;-65
2022/10/01 01:38:16;;;;;;;;;8.75;8.00;;;;;11.68;81.85;99924.16;5007300;28;9727;-64
2022/10/01 01:40:50;;;;;;;;;9.00;7.00;;;;;11.70;81.67;99919.34;5011239;28;9828;-65
2022/10/01 01:43:23;;;;;;;;;10.25;7.75;;;;;11.69;81.85;99914.19;4999784;28;9899;-64
2022/10/01 01:45:53;;;;;;;;;10.00;8.00;;;;;11.68;81.63;99913.38;5014256;28;9851;-63
2022/10/01 01:48:23;;;;;;;;;10.25;10.00;;;;;11.62;81.83;99908.88;5008996;28;9875;-63
2022/10/01 01:51:05;;;;;;;;;8.00;8.00;;;;;11.60;81.62;99901.00;5094358;28;10692;-63
2022/10/01 01:53:32;;;;;;;;;8.25;8.25;;;;;11.67;81.98;99905.50;5045422;28;10035;-63
2022/10/01 01:55:59;;;;;;;;;7.75;7.75;;;;;11.69;81.58;99896.16;5113104;28;9960;-64
2022/10/01 01:58:27;;;;;;;;;7.00;7.00;;;;;11.72;81.82;99884.09;5031629;28;9853;-64
2022/10/01 02:00:53;;;;;;;;;9.50;9.50;;;;;11.74;81.83;99890.91;5049926;28;9682;-64
2022/10/01 02:03:24;;;;;;;;;10.00;9.00;;;;;11.72;81.49;99892.19;5001996;28;10180;-65
2022/10/01 02:06:26;;;;;;;;;9.25;8.75;;;;;11.69;81.39;99876.47;5056137;28;9988;-63
2022/10/01 02:09:07;;;;;;;;;11.00;10.50;;;;;11.70;82.01;99888.88;5017842;28;9922;-63
2022/10/01 02:11:43;;;;;;;;;5.75;5.75;;;;;11.72;81.88;99881.41;5098243;28;9931;-62
2022/10/01 02:14:35;;;;;;;;;6.00;6.00;;;;;11.76;81.99;99888.81;5002688;28;9763;-63
2022/10/01 02:17:16;;;;;;;;;6.50;6.50;;;;;11.74;82.04;99876.59;5013763;28;9778;-63
2022/10/01 02:19:54;;;;;;;;;5.50;5.50;;;;;11.75;82.28;99873.69;5055779;28;9741;-64
2022/10/01 02:22:31;;;;;;;;;10.00;8.25;;;;;11.78;82.32;99867.81;5022670;28;9766;-64
2022/10/01 02:25:02;;;;;;;;;7.00;7.00;;;;;11.80;82.04;99873.84;5013360;28;9894;-64
2022/10/01 02:27:32;;;;;;;;;4.00;4.00;;;;;11.86;82.27;99867.56;5014403;28;9835;-64
2022/10/01 02:30:06;;;;;;;;;6.00;6.00;;;;;11.86;82.39;99874.81;5060033;28;9895;-64
2022/10/01 02:32:36;;;;;;;;;6.00;6.00;;;;;11.86;82.14;99862.16;5062982;28;9938;-64
2022/10/01 02:35:06;;;;;;;;;8.00;6.00;;;;;11.90;82.58;99861.72;5027903;28;10412;-64
2022/10/01 02:37:35;;;;;;;;;4.00;4.00;;;;;11.88;82.38;99849.28;5065461;28;9709;-64
2022/10/01 02:40:06;;;;;;;;;6.25;4.25;;;;;11.92;82.26;99854.22;5009379;28;9608;-64
2022/10/01 02:42:35;;;;;;;;;4.25;4.00;;;;;11.92;82.50;99846.16;5012297;28;10470;-64
2022/10/01 02:45:04;;;;;;;;;5.00;5.00;;;;;11.90;82.13;99851.75;5004114;28;9668;-64
2022/10/01 02:47:40;;;;;;;;;4.50;4.50;;;;;11.88;82.84;99854.69;5014063;28;9734;-64
2022/10/01 02:50:08;;;;;;;;;4.00;4.00;;;;;11.93;82.79;99856.69;5068256;28;9679;-64
2022/10/01 02:52:44;;;;;;;;;4.00;4.00;;;;;11.98;82.73;99861.41;5057607;28;10237;-64
2022/10/01 02:55:16;;;;;;;;;8.25;6.50;;;;;11.96;82.57;99863.53;5014058;28;9583;-64
2022/10/01 02:57:43;;;;;;;;;5.25;5.25;;;;;11.93;82.50;99845.09;5002384;28;9762;-65
2022/10/01 03:00:12;;;;;;;;;4.00;4.00;;;;;11.96;82.84;99855.44;5015647;28;9587;-64
2022/10/01 03:02:38;;;;;;;;;6.00;6.00;;;;;11.94;82.95;99857.50;5021784;28;10234;-64
2022/10/01 03:05:05;;;;;;;;;6.50;6.50;;;;;11.96;82.80;99842.75;5111168;28;10378;-64
2022/10/01 03:07:36;;;;;;;;;6.25;6.25;;;;;11.98;83.06;99834.44;5063863;28;9751;-64
2022/10/01 03:10:04;;;;;;;;;5.50;5.50;;;;;12.02;82.96;99835.63;5036285;28;9946;-64
2022/10/01 03:12:30;;;;;;;;;5.75;5.75;;;;;11.97;83.21;99838.19;4993720;28;9697;-64
2022/10/01 03:14:57;;;;;;;;;6.50;6.50;;;;;11.99;83.31;99825.28;5001631;28;9844;-64
2022/10/01 03:17:24;;;;;;;;;7.25;5.25;;;;;11.98;83.24;99829.84;5010586;28;9744;-64
2022/10/01 03:19:50;;;;;;;;;7.00;7.00;;;;;12.04;83.07;99823.56;5013242;28;9743;-64
2022/10/01 03:22:23;;;;;;;;;6.75;5.00;;;;;12.07;83.00;99830.34;5024666;28;9877;-64
2022/10/01 03:24:51;;;;;;;;;7.50;7.50;;;;;12.06;83.23;99834.94;5003649;28;9932;-64
2022/10/01 03:27:18;;;;;;;;;9.00;9.00;;;;;12.07;83.32;99830.34;5007787;28;10009;-64
2022/10/01 03:29:44;;;;;;;;;9.00;9.00;;;;;12.04;83.39;99828.97;5058682;23;9992;-67
2022/10/01 03:32:12;;;;;;;;;7.50;7.50;;;;;12.10;83.43;99833.41;5047800;28;10677;-66
2022/10/01 03:34:39;;;;;;;;;11.25;10.00;;;;;12.08;83.47;99842.81;5065128;28;9754;-67
2022/10/01 03:37:06;;;;;;;;;12.75;10.75;;;;;12.10;83.62;99844.22;5045416;28;9836;-67
2022/10/01 03:39:32;;;;;;;;;9.00;7.25;;;;;12.14;83.58;99852.69;5044159;28;10012;-68
2022/10/01 03:41:59;;;;;;;;;9.00;8.25;;;;;12.19;83.62;99843.88;5064055;28;9855;-67
2022/10/01 03:44:27;;;;;;;;;10.75;10.00;;;;;12.24;83.38;99846.75;5050691;28;9659;-67
2022/10/01 03:46:54;;;;;;;;;9.00;9.00;;;;;12.23;83.42;99856.69;5045476;28;10012;-67
2022/10/01 03:49:20;;;;;;;;;11.75;11.75;;;;;12.24;83.00;99865.63;5057510;28;9777;-67
2022/10/01 03:51:46;;;;;;;;;12.50;12.50;;;;;12.27;83.21;99870.56;5034913;28;9750;-66
2022/10/01 03:54:13;;;;;;;;;15.50;14.00;;;;;12.26;83.25;99868.91;5048145;28;10549;-67
2022/10/01 03:56:41;;;;;;;;;13.50;12.00;;;;;12.26;83.30;99869.72;5060857;28;10572;-67
2022/10/01 03:59:09;;;;;;;;;11.50;11.50;;;;;12.29;83.37;99885.47;5038151;28;10085;-67
2022/10/01 04:01:37;;;;;;;;;13.50;12.75;;;;;12.27;83.26;99870.56;5054323;28;9997;-67
2022/10/01 04:04:05;;;;;;;;;13.00;12.00;;;;;12.32;83.48;99876.94;5051153;28;9898;-67
2022/10/01 04:06:31;;;;;;;;;9.00;9.00;;;;;12.35;83.60;99875.63;5041393;28;9881;-66
2022/10/01 04:08:58;;;;;;;;;6.00;6.00;;;;;12.42;83.65;99887.16;5052665;28;9734;-67
2022/10/01 04:11:24;;;;;;;;;10.50;9.00;;;;;12.45;83.29;99886.69;5065957;28;9655;-67
2022/10/01 04:13:51;;;;;;;;;9.75;9.75;;;;;12.46;83.32;99892.91;5043720;28;9884;-67
2022/10/01 04:16:17;;;;;;;;;13.00;12.50;;;;;12.45;83.22;99894.81;5038948;28;9866;-66
2022/10/01 04:18:44;;;;;;;;;16.25;15.75;;;;;12.44;83.05;99889.66;5049706;28;9741;-67
2022/10/01 04:21:11;;;;;;;;;14.75;14.50;;;;;12.43;83.44;99901.47;5034303;28;9871;-67
2022/10/01 04:23:38;;;;;;;;;15.75;15.25;;;;;12.44;83.52;99900.44;5046129;28;10142;-66
2022/10/01 04:26:04;;;;;;;;;13.00;13.00;;;;;12.47;83.49;99902.66;5055735;28;9909;-67
2022/10/01 04:28:31;;;;;;;;;6.75;6.75;;;;;12.52;83.45;99911.72;5041359;28;9867;-67
2022/10/01 04:33:43;;;;;;;;;9.25;8.50;;;;;12.55;83.31;99916.66;5044162;28;9744;-67
2022/10/01 04:36:09;;;;;;;;;6.75;5.50;;;;;12.59;83.20;99919.72;5037176;28;9758;-67
2022/10/01 04:38:36;;;;;;;;;6.75;6.75;;;;;12.60;83.26;99921.38;5045564;28;9684;-67
2022/10/01 04:41:03;;;;;;;;;13.00;11.50;;;;;12.61;82.94;99923.03;5055360;28;9727;-67
2022/10/01 04:43:29;;;;;;;;;8.00;8.00;;;;;12.59;83.17;99928.63;5038535;28;9787;-67
2022/10/01 04:45:55;;;;;;;;;9.00;9.00;;;;;12.60;83.17;99926.78;5044326;28;10648;-67
2022/10/01 04:48:22;;;;;;;;;6.00;6.00;;;;;12.65;83.14;99926.91;5044479;28;9849;-68
2022/10/01 04:50:49;;;;;;;;;8.25;7.50;;;;;12.60;82.89;99929.47;5042008;28;9761;-67
2022/10/01 04:53:15;;;;;;;;;6.00;6.00;;;;;12.62;83.14;99936.28;5068668;28;9875;-67
2022/10/01 04:55:42;;;;;;;;;5.75;5.75;;;;;12.66;83.03;99938.53;5054524;28;9866;-67
2022/10/01 04:58:09;;;;;;;;;5.00;5.00;;;;;12.67;82.88;99946.38;5044581;28;9757;-67
2022/10/01 05:00:35;;;;;;;;;4.00;4.00;;;;;12.68;82.74;99942.66;5055879;28;9676;-67
2022/10/01 05:03:02;;;;;;;;;4.00;4.00;;;;;12.70;82.82;99942.41;5047629;28;9749;-67
2022/10/01 05:05:31;;;;;;;;;8.00;4.00;;;;;12.70;82.44;99950.50;5056689;28;9704;-67
2022/10/01 05:07:58;;;;;;;;;6.00;6.00;;;;;12.70;82.50;99955.91;5053582;28;9607;-68
2022/10/01 05:10:25;;;;;;;;;4.50;4.00;;;;;12.71;82.24;99963.78;5053041;28;9762;-68
2022/10/01 05:12:51;;;;;;;;;4.75;2.75;;;;;12.71;82.52;99963.78;5059330;28;9665;-68
2022/10/01 05:15:18;;;;;;;;;3.00;3.00;;;;;12.72;82.41;99962.75;5056436;28;9607;-68
2022/10/01 05:17:45;;;;;;;;;5.25;5.25;;;;;12.71;82.24;99969.19;5060654;28;9586;-68
2022/10/01 05:20:19;;;;;;;;;4.50;3.00;;;;;12.71;82.37;99981.84;5065674;28;9591;-65
2022/10/01 05:22:46;;;;;;;;;2.00;2.00;;;;;12.71;82.27;99987.25;5049001;28;9509;-68
2022/10/01 05:25:13;;;;;;;;;2.75;2.75;;;;;12.71;82.28;99985.38;5051663;28;9549;-68
2022/10/01 05:27:39;;;;;;;;;2.00;2.00;;;;;12.71;82.04;99987.25;5042810;28;9661;-67
2022/10/01 05:30:10;;;;;;;;;2.00;2.00;;;;;12.72;82.23;99989.75;5049778;28;9446;-68
2022/10/01 05:32:38;;;;;;;;;2.00;2.00;;;;;12.71;82.11;99998.88;5056699;28;9374;-66
2022/10/01 05:35:06;;;;;;;;;1.00;1.00;;;;;12.72;82.00;100003.25;5043503;28;9536;-67
2022/10/01 05:37:33;;;;;;;;;2.00;2.00;;;;;12.73;81.76;99995.97;5057359;28;10197;-67
2022/10/01 05:40:00;;;;;;;;;2.00;2.00;;;;;12.70;81.96;100008.03;5039367;28;10255;-67
2022/10/01 05:42:26;;;;;;;;;2.00;2.00;;;;;12.70;81.76;100009.91;5050477;28;9450;-68
2022/10/01 05:44:53;;;;;;;;;4.25;2.00;;;;;12.71;81.89;100014.25;5054705;28;9610;-68
2022/10/01 05:47:19;;;;;;;;;5.25;3.00;;;;;12.71;81.96;100020.47;5059144;28;9500;-68
2022/10/01 05:49:46;;;;;;;;;5.25;2.50;;;;;12.71;81.95;100031.28;5037522;28;9601;-66
2022/10/01 05:52:15;;;;;;;;;2.00;2.00;;;;;12.72;81.94;100030.25;5047249;28;9591;-68
2022/10/01 05:54:41;;;;;;;;;1.00;1.00;;;;;12.76;82.12;100038.69;5049533;28;9543;-68
2022/10/01 05:57:08;;;;;;;;;1.50;1.50;;;;;12.76;81.69;100034.16;5042019;28;9404;-68
2022/10/01 05:59:34;;;;;;;;;3.00;3.00;;;;;12.74;81.62;100044.34;5048626;28;10306;-67
2022/10/01 06:02:02;;;;;;;;;1.75;1.75;;;;;12.75;81.68;100045.16;5051877;28;9466;-68
2022/10/01 06:04:29;;;;;;;;;1.00;0.50;;;;;12.77;81.74;100053.88;5057412;28;9511;-67
2022/10/01 06:06:55;;;;;;;;;1.00;1.00;;;;;12.77;81.66;100052.00;5057863;28;9453;-67
2022/10/01 06:09:22;;;;;;;;;2.25;2.25;;;;;12.79;81.46;100046.34;5036404;28;10260;-67
2022/10/01 06:11:48;;;;;;;;;1.25;1.25;;;;;12.78;81.59;100047.41;5049770;28;9522;-66
2022/10/01 06:14:16;;;;;;;;;1.25;1.00;;;;;12.80;81.59;100054.25;5045513;28;9538;-67
2022/10/01 06:16:42;;;;;;;;;2.67;2.00;;;;;12.82;81.54;100054.00;5065966;28;9864;-68
2022/10/01 06:19:09;;;;;;;;;2.50;2.00;;;;;12.83;81.47;100059.16;5039963;28;10189;-65
2022/10/01 06:21:35;;;;;;;;;1.25;1.25;;;;;12.89;81.63;100051.22;5056888;28;9444;-67
2022/10/01 06:24:02;;;;;;;;;0.00;0.00;;;;;12.92;81.49;100053.44;5041695;28;9387;-66
2022/10/01 06:26:30;;;;;;;;;0.00;0.00;;;;;12.96;81.64;100050.06;5054334;28;9452;-67
2022/10/01 06:28:56;;;;;;;;;2.25;1.00;;;;;12.98;81.31;100056.06;5057101;28;9265;-68
2022/10/01 06:31:22;;;;;;;;;1.00;1.00;;;;;13.01;81.03;100052.09;5059395;28;9352;-68
2022/10/01 06:33:49;;;;;;;;;3.00;2.00;;;;;13.04;81.10;100057.00;5047342;28;9378;-67
2022/10/01 06:36:15;;;;;;;;;2.50;2.00;;;;;13.05;80.76;100064.09;5049563;28;9383;-67
2022/10/01 06:38:42;;;;;;;;;2.25;2.25;;;;;13.08;80.94;100064.47;5058875;28;9461;-68
2022/10/01 06:41:08;;;;;;;;;4.33;2.00;;;;;13.15;80.88;100066.22;5036361;28;10165;-67
2022/10/01 06:43:35;;;;;;;;;2.00;2.00;;;;;13.19;80.92;100070.94;5050036;28;9288;-67
2022/10/01 06:46:03;;;;;;;;;2.00;1.67;;;;;13.22;80.73;100075.06;5059500;28;9373;-65
2022/10/01 06:48:31;;;;;;;;;1.00;1.00;;;;;13.24;80.49;100075.69;5061418;28;9377;-67
2022/10/01 06:50:58;;;;;;;;;1.00;1.00;;;;;13.27;80.48;100076.03;5059084;28;9443;-66
2022/10/01 06:53:26;;;;;;;;;2.00;2.00;;;;;13.31;80.50;100082.63;5049273;28;9296;-67
2022/10/01 06:55:54;;;;;;;;;1.00;1.00;;;;;13.34;80.34;100084.06;5046343;28;9243;-67
2022/10/01 06:58:25;;;;;;;;;1.00;1.00;;;;;13.37;80.19;100089.03;5045099;28;9179;-69
2022/10/01 07:01:00;;;;;;;;;1.00;1.00;;;;;13.38;80.30;100097.94;5058422;28;9230;-67
2022/10/01 07:03:27;;;;;;;;;1.00;1.00;;;;;13.38;80.47;100100.66;5046437;28;9139;-68
2022/10/01 07:06:01;;;;;;;;;2.00;2.00;;;;;13.37;80.52;100110.66;5053035;28;9297;-66
2022/10/01 07:08:27;;;;;;;;;1.33;1.00;;;;;13.38;80.35;100111.47;5048023;28;9225;-66
2022/10/01 07:10:58;;;;;;;;;2.00;2.00;;;;;13.35;80.49;100112.75;5050985;28;8995;-67
2022/10/01 07:13:25;;;;;;;;;1.00;1.00;;;;;13.32;80.49;100114.00;5049582;28;9220;-67
2022/10/01 07:15:51;;;;;;;;;1.33;1.33;;;;;13.28;80.88;100107.41;5050358;28;9255;-67
2022/10/01 07:18:17;;;;;;;;;1.33;1.33;;;;;13.27;80.74;100113.88;5063295;28;9228;-68
2022/10/01 07:20:44;;;;;;;;;4.00;1.00;;;;;13.22;81.08;100121.00;5071323;28;9146;-68
2022/10/01 07:23:12;;;;;;;;;0.00;0.00;;;;;13.22;81.17;100113.72;5046171;28;9476;-66
2022/10/01 07:25:39;;;;;;;;;1.67;1.67;;;;;13.25;81.34;100118.72;5033648;28;9232;-66
2022/10/01 07:28:14;;;;;;;;;3.00;3.00;;;;;13.27;81.21;100121.16;5043185;28;9059;-67
2022/10/01 07:30:43;;;;;;;;;1.00;1.00;;;;;13.26;81.72;100122.22;5039214;28;9268;-68
2022/10/01 07:33:09;;;;;;;;;3.33;2.33;;;;;13.27;81.89;100132.81;5063054;28;9210;-67
2022/10/01 07:35:37;;;;;;;;;1.00;1.00;;;;;13.30;81.93;100135.06;5060592;28;9311;-68
2022/10/01 07:38:05;;;;;;;;;4.33;2.67;;;;;13.34;82.22;100138.94;5048653;28;9170;-68
2022/10/01 07:40:31;;;;;;;;;3.33;3.33;;;;;13.36;82.12;100130.59;5053872;28;9319;-68
2022/10/01 07:42:58;;;;;;;;;3.00;1.33;;;;;13.43;82.20;100134.03;5050799;28;9324;-67
2022/10/01 07:45:25;;;;;;;;;1.00;1.00;;;;;13.49;82.12;100140.38;5050624;28;9388;-68
2022/10/01 07:48:03;;;;;;;;;2.67;2.00;;;;;13.54;81.89;100141.38;5050146;28;9154;-67
2022/10/01 07:50:29;;;;;;;;;2.00;2.00;;;;;13.58;81.80;100139.03;5042461;28;9222;-69
2022/10/01 07:52:57;;;;;;;;;2.00;2.00;;;;;13.60;81.87;100140.44;5047647;28;9163;-66
2022/10/01 07:55:26;;;;;;;;;3.67;1.00;;;;;13.61;81.85;100152.06;5054374;28;9238;-68
2022/10/01 07:57:54;;;;;;;;;1.00;1.00;;;;;13.63;81.82;100158.09;5049109;28;9345;-68
2022/10/01 08:00:27;;;;;;;;;1.67;1.67;;;;;13.64;81.59;100156.19;5055143;28;9233;-67
2022/10/01 08:02:55;;;;;;;;;2.33;1.33;;;;;13.64;81.59;100170.53;5048759;28;9246;-66
2022/10/01 08:05:24;;;;;;;;;2.00;2.00;;;;;13.61;81.67;100160.19;5055825;28;9378;-68
2022/10/01 08:07:51;;;;;;;;;5.00;2.00;;;;;13.61;81.79;100168.28;5056502;28;9215;-67
2022/10/01 08:10:19;;;;;;;;;2.67;2.67;;;;;13.67;82.24;100166.56;5048906;28;9346;-67
2022/10/01 08:12:45;;;;;;;;;1.33;1.00;;;;;13.75;82.30;100167.06;5059307;28;9148;-68
2022/10/01 08:15:14;;;;;;;;;0.67;0.67;;;;;13.81;81.93;100178.81;5066679;28;9193;-66
2022/10/01 08:17:42;;;;;;;;;1.67;1.67;;;;;13.80;81.74;100175.28;5034104;28;9169;-68
2022/10/01 08:20:11;;;;;;;;;2.33;2.33;;;;;13.82;81.68;100184.00;5042460;28;9208;-63
2022/10/01 08:22:38;;;;;;;;;3.67;1.67;;;;;13.82;81.92;100186.72;5057239;28;9168;-66
2022/10/01 08:25:08;;;;;;;;;2.00;2.00;;;;;13.79;81.82;100187.16;5054691;28;9236;-68
2022/10/01 08:27:35;;;;;;;;;1.00;1.00;;;;;13.80;82.04;100190.69;5045025;28;9236;-67
2022/10/01 08:30:02;;;;;;;;;3.67;2.00;;;;;13.84;82.08;100195.41;5055048;28;9044;-66
2022/10/01 08:32:29;;;;;;;;;1.00;1.00;;;;;13.89;82.26;100192.00;5053843;28;9064;-68
2022/10/01 08:34:58;;;;;;;;;2.00;2.00;;;;;13.96;82.53;100192.72;5049800;28;8978;-69
2022/10/01 08:37:26;;;;;;;;;1.00;1.00;;;;;14.04;82.17;100200.50;5044381;28;9831;-67
2022/10/01 08:39:54;;;;;;;;;1.00;1.00;;;;;14.14;82.09;100199.09;5046649;28;8996;-67
2022/10/01 08:42:58;;;;;;;;;1.00;1.00;;;;;14.21;81.87;100206.06;5043351;28;8998;-68
2022/10/01 08:45:33;;;;;;;;;1.67;1.33;;;;;14.32;81.96;100207.16;5059162;28;9073;-68
2022/10/01 08:48:30;;;;;;;;;2.00;2.00;;;;;14.38;81.64;100213.50;5045089;28;9144;-69
2022/10/01 08:51:04;;;;;;;;;2.00;2.00;;;;;14.30;81.22;100211.94;5038199;28;9007;-67
2022/10/01 08:53:44;;;;;;;;;1.33;1.00;;;;;14.28;80.92;100214.91;5050991;28;9001;-67
2022/10/01 08:56:34;;;;;;;;;2.33;2.33;;;;;14.35;81.00;100220.22;5061465;28;9154;-68
2022/10/01 08:59:21;;;;;;;;;1.33;1.33;;;;;14.41;80.54;100218.44;5055640;28;8977;-68
2022/10/01 09:01:54;;;;;;;;;1.00;1.00;;;;;14.45;79.67;100228.56;5058760;28;9077;-69
2022/10/01 09:04:21;;;;;;;;;1.00;0.67;;;;;14.58;79.03;100232.97;5053141;28;9092;-68
2022/10/01 09:07:03;;;;;;;;;0.67;0.67;;;;;14.61;78.67;100231.69;5045671;28;9148;-68
2022/10/01 09:09:48;;;;;;;;;2.00;0.50;;;;;14.57;78.40;100247.56;5060217;28;9009;-67
2022/10/01 09:12:32;;;;;;;;;2.33;2.00;;;;;14.43;78.35;100246.94;5055196;28;8870;-68
2022/10/01 09:15:05;;;;;;;;;0.00;0.00;;;;;14.45;78.32;100252.13;5061086;28;9075;-67
2022/10/01 09:17:54;;;;;;;;;1.67;1.67;;;;;14.55;78.28;100247.00;5076280;28;9135;-67
2022/10/01 09:20:33;;;;;;;;;1.33;0.67;;;;;14.61;77.46;100258.75;5058897;28;9071;-65
2022/10/01 09:23:02;;;;;;;;;1.00;1.00;;;;;14.64;77.13;100272.66;5035960;28;9052;-67
2022/10/01 09:25:31;;;;;;;;;2.00;1.33;;;;;14.71;77.05;100273.38;5033618;28;8999;-68
2022/10/01 09:28:05;;;;;;;;;2.00;2.00;;;;;14.73;76.76;100263.13;5047221;28;9047;-68
2022/10/01 09:30:34;;;;;;;;;5.33;2.00;;;;;14.83;76.33;100276.09;5065372;28;9231;-65
2022/10/01 09:33:22;;;;;;;;;1.67;1.67;;;;;14.73;76.13;100267.72;5061086;28;8905;-65
2022/10/01 09:36:20;;;;;;;;;2.00;1.50;;;;;14.86;75.62;100277.50;5062411;28;9066;-67
2022/10/01 09:39:02;;;;;;;;;2.00;2.00;;;;;14.96;75.46;100283.16;5051508;28;8866;-64
2022/10/01 09:41:30;;;;;;;;;3.50;2.00;;;;;15.01;74.84;100288.69;5052905;28;8920;-64
2022/10/01 09:43:56;;;;;;;;;6.00;2.00;;;;;14.98;74.39;100283.72;5056120;28;8801;-64
2022/10/01 09:46:25;;;;;;;;;2.00;2.00;;;;;14.93;74.15;100289.84;5057706;28;8911;-65
2022/10/01 09:49:04;;;;;;;;;1.00;1.00;;;;;14.94;73.55;100301.53;5052773;28;8994;-63
2022/10/01 09:51:41;;;;;;;;;2.75;1.00;;;;;15.01;73.95;100299.53;5051748;28;8827;-67
2022/10/01 09:54:36;;;;;;;;;1.75;1.00;;;;;15.00;73.71;100306.00;5057088;28;8801;-64
2022/10/01 09:57:31;;;;;;;;;0.75;0.75;;;;;15.02;73.71;100312.00;5061421;28;8958;-65
2022/10/01 10:00:19;;;;;;;;;3.67;2.00;;;;;14.98;73.46;100316.25;5062257;28;8939;-64
2022/10/01 10:02:47;;;;;;;;;1.00;1.00;;;;;14.92;73.72;100312.59;5054161;28;8974;-64
2022/10/01 10:05:25;;;;;;;;;3.50;2.25;;;;;14.94;73.13;100321.31;5050824;28;8863;-65
2022/10/01 10:07:53;;;;;;;;;1.75;1.00;;;;;14.93;73.67;100316.97;5048535;28;9216;-64
2022/10/01 10:10:28;;;;;;;;;2.00;2.00;;;;;14.94;73.11;100321.31;5060812;28;8839;-66
2022/10/01 10:13:12;;;;;;;;;2.25;2.25;;;;;14.94;73.33;100329.44;5055114;28;8860;-64
2022/10/01 10:15:49;;;;;;;;;2.50;2.00;;;;;14.83;73.37;100344.66;5064319;28;8837;-65
2022/10/01 10:18:26;;;;;;;;;3.33;3.33;;;;;14.87;73.37;100346.88;5053967;28;9021;-65
2022/10/01 10:20:54;;;;;;;;;2.00;2.00;;;;;14.87;72.70;100352.28;5050052;28;8964;-63
2022/10/01 10:23:28;;;;;;;;;3.00;2.00;;;;;14.98;72.35;100356.91;5051599;28;8843;-64
2022/10/01 10:26:01;;;;;;;;;2.00;2.00;;;;;14.88;72.74;100365.63;5053379;28;8931;-65
2022/10/01 10:28:39;;;;;;;;;5.00;3.00;;;;;15.03;72.74;100362.47;5059100;28;9053;-65
2022/10/01 10:31:14;;;;;;;;;3.00;1.75;;;;;15.12;72.65;100377.31;5032261;28;8936;-65
2022/10/01 10:33:51;;;;;;;;;2.00;1.50;;;;;15.18;72.24;100378.25;5049978;28;8804;-65
2022/10/01 10:36:20;;;;;;;;;3.75;1.25;;;;;15.16;71.95;100383.91;5050633;28;8865;-65
2022/10/01 10:38:49;;;;;;;;;3.00;3.00;;;;;15.15;72.20;100384.97;5050769;28;8842;-63
2022/10/01 10:41:24;;;;;;;;;11.00;3.00;;;;;15.29;71.77;100396.41;5063003;28;9047;-66
2022/10/01 10:43:55;;;;;;;;;2.00;2.00;;;;;15.33;71.44;100400.28;5059789;28;8975;-64
2022/10/01 10:46:28;;;;;;;;;1.00;1.00;;;;;15.29;70.24;100399.94;5053103;28;8854;-66
2022/10/01 10:49:30;;;;;;;;;1.00;1.00;;;;;15.24;70.14;100407.97;5055511;28;8865;-65
2022/10/01 10:51:59;;;;;;;;;7.00;2.00;;;;;15.17;70.27;100407.25;5060698;28;8831;-65
2022/10/01 10:54:40;;;;;;;;;3.00;3.00;;;;;15.06;70.66;100417.00;5043451;28;8933;-64
2022/10/01 10:57:20;;;;;;;;;3.00;2.00;;;;;15.06;70.70;100421.59;5042480;28;8934;-64
2022/10/01 10:59:58;;;;;;;;;2.00;2.00;;;;;15.06;70.98;100432.44;5063882;28;8934;-66
2022/10/01 11:02:28;;;;;;;;;2.00;2.00;;;;;15.05;70.68;100431.63;5043396;28;8946;-65
2022/10/01 11:05:02;;;;;;;;;2.00;2.00;;;;;15.02;69.62;100431.28;5055807;28;8817;-64
2022/10/01 11:07:30;;;;;;;;;2.75;1.50;;;;;15.03;69.57;100443.78;5053078;28;8824;-64
2022/10/01 11:10:21;;;;;;;;;0.75;0.75;;;;;15.05;69.95;100436.22;5063087;28;9273;-64
2022/10/01 11:13:07;;;;;;;;;1.00;1.00;;;;;15.02;69.75;100442.94;5045861;28;8975;-64
2022/10/01 11:15:42;;;;;;;;;0.00;0.00;;;;;15.10;69.69;100449.91;5067778;28;8908;-63
2022/10/01 11:18:34;;;;;;;;;6.25;1.50;;;;;15.18;69.49;100459.59;5053379;28;8808;-63
2022/10/01 11:21:29;;;;;;;;;1.00;1.00;;;;;15.34;69.28;100458.88;5061308;28;8972;-68
2022/10/01 11:24:34;;;;;;;;;1.00;1.00;;;;;15.55;68.84;100465.59;5067747;28;8824;-64
2022/10/01 11:27:26;;;;;;;;;3.00;1.00;;;;;15.62;68.96;100471.75;5047896;28;8823;-63
2022/10/01 11:30:19;;;;;;;;;1.00;0.75;;;;;15.46;67.61;100478.72;5064302;28;9624;-63
2022/10/01 11:33:09;;;;;;;;;1.75;1.00;;;;;15.42;67.45;100484.84;5042858;28;8835;-67
2022/10/01 11:35:43;;;;;;;;;3.00;1.25;;;;;15.44;67.32;100480.03;5045793;28;8834;-65
2022/10/01 11:38:36;;;;;;;;;1.00;1.00;;;;;15.53;67.34;100487.56;5054658;28;8930;-64
2022/10/01 11:41:19;;;;;;;;;4.25;1.00;;;;;15.60;66.31;100498.31;5051781;28;8863;-63
2022/10/01 11:43:53;;;;;;;;;0.75;0.75;;;;;15.66;66.32;100500.09;5051579;28;8812;-63
2022/10/01 11:46:58;;;;;;;;;1.25;1.25;;;;;15.47;65.29;100504.75;5060861;28;8828;-64
2022/10/01 11:49:25;;;;;;;;;1.00;1.00;;;;;15.39;64.86;100507.81;5050675;28;9604;-62
2022/10/01 11:52:22;;;;;;;;;2.00;1.00;;;;;15.46;65.24;100513.97;5053127;28;8914;-65
2022/10/01 11:58:49;;;;;;;;;2.25;1.50;;;;;15.55;65.62;100519.88;5046956;28;8829;-62
2022/10/01 12:01:17;;;;;;;;;0.00;0.00;;;;;15.45;65.51;100522.34;5049467;28;8936;-63
2022/10/01 12:03:53;;;;;;;;;0.00;0.00;;;;;15.51;65.29;100533.06;5051605;28;8839;-64